sensor_id;sensor_type;location;lat;lon;timestamp;P1;durP1;ratioP1;P2;durP2;ratioP2
9138;SDS011;4604;48.616;9.548;2022-08-19T00:00:36;15.77;;;13.00;;
9138;SDS011;4604;48.616;9.548;2022-08-19T00:03:03;17.20;;;13.85;;
9138;SDS011;4604;48.616;9.548;2022-08-19T00:05:30;16.25;;;12.98;;
9138;SDS011;4604;48.616;9.548;2022-08-19T00:07:57;14.05;;;12.20;;
9138;SDS011;4604;48.616;9.548;2022-08-19T00:10:25;17.08;;;14.45;;
9138;SDS011;4604;48.616;9.548;2022-08-19T00:12:52;14.57;;;12.20;;
9138;SDS011;4604;48.616;9.548;2022-08-19T00:15:20;18.27;;;14.38;;
9138;SDS011;4604;48.616;9.548;2022-08-19T00:17:47;16.48;;;13.13;;
9138;SDS011;4604;48.616;9.548;2022-08-19T00:20:16;14.18;;;12.48;;
9138;SDS011;4604;48.616;9.548;2022-08-19T00:22:45;18.80;;;13.70;;
9138;SDS011;4604;48.616;9.548;2022-08-19T00:25:13;19.92;;;15.82;;
9138;SDS011;4604;48.616;9.548;2022-08-19T00:27:41;15.95;;;13.30;;
9138;SDS011;4604;48.616;9.548;2022-08-19T00:30:08;17.17;;;13.02;;
9138;SDS011;4604;48.616;9.548;2022-08-19T00:32:36;26.52;;;15.38;;
9138;SDS011;4604;48.616;9.548;2022-08-19T00:35:04;16.75;;;12.75;;
9138;SDS011;4604;48.616;9.548;2022-08-19T00:37:31;15.00;;;12.55;;
9138;SDS011;4604;48.616;9.548;2022-08-19T00:40:00;16.08;;;13.23;;
9138;SDS011;4604;48.616;9.548;2022-08-19T00:42:27;17.42;;;14.73;;
9138;SDS011;4604;48.616;9.548;2022-08-19T00:44:56;20.23;;;14.07;;
9138;SDS011;4604;48.616;9.548;2022-08-19T00:47:23;18.30;;;14.23;;
9138;SDS011;4604;48.616;9.548;2022-08-19T00:49:50;13.27;;;11.70;;
9138;SDS011;4604;48.616;9.548;2022-08-19T00:52:21;16.10;;;12.50;;
9138;SDS011;4604;48.616;9.548;2022-08-19T00:54:52;15.55;;;12.63;;
9138;SDS011;4604;48.616;9.548;2022-08-19T00:57:20;16.38;;;12.85;;
9138;SDS011;4604;48.616;9.548;2022-08-19T00:59:52;17.25;;;14.02;;
9138;SDS011;4604;48.616;9.548;2022-08-19T01:02:23;22.80;;;16.17;;
9138;SDS011;4604;48.616;9.548;2022-08-19T01:04:50;18.80;;;15.07;;
9138;SDS011;4604;48.616;9.548;2022-08-19T01:07:17;17.45;;;13.35;;
9138;SDS011;4604;48.616;9.548;2022-08-19T01:09:44;15.00;;;12.32;;
9138;SDS011;4604;48.616;9.548;2022-08-19T01:12:11;19.63;;;15.73;;
9138;SDS011;4604;48.616;9.548;2022-08-19T01:14:38;18.55;;;13.68;;
9138;SDS011;4604;48.616;9.548;2022-08-19T01:17:08;18.45;;;14.52;;
9138;SDS011;4604;48.616;9.548;2022-08-19T01:19:37;18.00;;;14.90;;
9138;SDS011;4604;48.616;9.548;2022-08-19T01:22:08;15.05;;;11.48;;
9138;SDS011;4604;48.616;9.548;2022-08-19T01:24:40;14.73;;;12.60;;
9138;SDS011;4604;48.616;9.548;2022-08-19T01:27:07;16.63;;;13.45;;
9138;SDS011;4604;48.616;9.548;2022-08-19T01:29:34;16.63;;;13.73;;
9138;SDS011;4604;48.616;9.548;2022-08-19T01:32:04;16.00;;;13.32;;
9138;SDS011;4604;48.616;9.548;2022-08-19T01:34:31;17.77;;;13.82;;
9138;SDS011;4604;48.616;9.548;2022-08-19T01:36:59;19.77;;;14.18;;
9138;SDS011;4604;48.616;9.548;2022-08-19T01:39:27;23.50;;;15.38;;
9138;SDS011;4604;48.616;9.548;2022-08-19T01:41:55;16.50;;;13.43;;
9138;SDS011;4604;48.616;9.548;2022-08-19T01:44:22;20.33;;;14.85;;
9138;SDS011;4604;48.616;9.548;2022-08-19T01:46:50;19.42;;;13.73;;
9138;SDS011;4604;48.616;9.548;2022-08-19T01:49:18;20.33;;;14.38;;
9138;SDS011;4604;48.616;9.548;2022-08-19T01:51:47;17.63;;;14.50;;
9138;SDS011;4604;48.616;9.548;2022-08-19T01:54:14;18.05;;;14.27;;
9138;SDS011;4604;48.616;9.548;2022-08-19T01:56:43;17.80;;;14.10;;
9138;SDS011;4604;48.616;9.548;2022-08-19T01:59:13;18.00;;;14.02;;
9138;SDS011;4604;48.616;9.548;2022-08-19T02:01:42;15.80;;;12.98;;
9138;SDS011;4604;48.616;9.548;2022-08-19T02:04:09;19.63;;;15.27;;
9138;SDS011;4604;48.616;9.548;2022-08-19T02:06:36;18.48;;;14.35;;
9138;SDS011;4604;48.616;9.548;2022-08-19T02:09:04;15.27;;;13.02;;
9138;SDS011;4604;48.616;9.548;2022-08-19T02:11:33;18.27;;;13.98;;
9138;SDS011;4604;48.616;9.548;2022-08-19T02:14:03;20.52;;;15.38;;
9138;SDS011;4604;48.616;9.548;2022-08-19T02:16:32;15.68;;;12.85;;
9138;SDS011;4604;48.616;9.548;2022-08-19T02:18:59;17.60;;;12.88;;
9138;SDS011;4604;48.616;9.548;2022-08-19T02:21:27;15.63;;;12.77;;
9138;SDS011;4604;48.616;9.548;2022-08-19T02:23:54;21.15;;;15.80;;
9138;SDS011;4604;48.616;9.548;2022-08-19T02:26:22;18.60;;;15.07;;
9138;SDS011;4604;48.616;9.548;2022-08-19T02:28:51;16.17;;;13.30;;
9138;SDS011;4604;48.616;9.548;2022-08-19T02:31:20;16.50;;;12.70;;
9138;SDS011;4604;48.616;9.548;2022-08-19T02:33:49;18.98;;;14.35;;
9138;SDS011;4604;48.616;9.548;2022-08-19T02:36:17;20.90;;;15.07;;
9138;SDS011;4604;48.616;9.548;2022-08-19T02:38:44;15.93;;;12.07;;
9138;SDS011;4604;48.616;9.548;2022-08-19T02:41:12;20.75;;;15.93;;
9138;SDS011;4604;48.616;9.548;2022-08-19T02:43:40;18.15;;;14.73;;
9138;SDS011;4604;48.616;9.548;2022-08-19T02:46:13;19.83;;;15.82;;
9138;SDS011;4604;48.616;9.548;2022-08-19T02:48:42;18.23;;;14.52;;
9138;SDS011;4604;48.616;9.548;2022-08-19T02:51:14;19.45;;;14.27;;
9138;SDS011;4604;48.616;9.548;2022-08-19T02:53:42;21.55;;;14.68;;
9138;SDS011;4604;48.616;9.548;2022-08-19T02:56:09;16.42;;;13.50;;
9138;SDS011;4604;48.616;9.548;2022-08-19T02:58:36;21.35;;;15.68;;
9138;SDS011;4604;48.616;9.548;2022-08-19T03:01:03;18.60;;;14.82;;
9138;SDS011;4604;48.616;9.548;2022-08-19T03:03:30;18.58;;;13.63;;
9138;SDS011;4604;48.616;9.548;2022-08-19T03:06:07;19.60;;;14.27;;
9138;SDS011;4604;48.616;9.548;2022-08-19T03:08:37;18.15;;;13.88;;
9138;SDS011;4604;48.616;9.548;2022-08-19T03:11:04;20.92;;;15.43;;
9138;SDS011;4604;48.616;9.548;2022-08-19T03:13:31;18.23;;;13.90;;
9138;SDS011;4604;48.616;9.548;2022-08-19T03:15:58;26.42;;;17.50;;
9138;SDS011;4604;48.616;9.548;2022-08-19T03:18:25;20.40;;;15.00;;
9138;SDS011;4604;48.616;9.548;2022-08-19T03:20:52;22.75;;;15.82;;
9138;SDS011;4604;48.616;9.548;2022-08-19T03:23:19;20.15;;;15.07;;
9138;SDS011;4604;48.616;9.548;2022-08-19T03:25:49;19.80;;;14.05;;
9138;SDS011;4604;48.616;9.548;2022-08-19T03:28:17;21.80;;;15.20;;
9138;SDS011;4604;48.616;9.548;2022-08-19T03:30:54;19.00;;;14.25;;
9138;SDS011;4604;48.616;9.548;2022-08-19T03:33:23;21.90;;;15.82;;
9138;SDS011;4604;48.616;9.548;2022-08-19T03:35:59;19.75;;;15.00;;
9138;SDS011;4604;48.616;9.548;2022-08-19T03:38:27;22.77;;;16.27;;
9138;SDS011;4604;48.616;9.548;2022-08-19T03:40:56;17.15;;;13.43;;
9138;SDS011;4604;48.616;9.548;2022-08-19T03:43:22;17.67;;;13.07;;
9138;SDS011;4604;48.616;9.548;2022-08-19T03:45:58;15.32;;;12.15;;
9138;SDS011;4604;48.616;9.548;2022-08-19T03:48:27;17.10;;;13.27;;
9138;SDS011;4604;48.616;9.548;2022-08-19T03:50:55;18.60;;;13.02;;
9138;SDS011;4604;48.616;9.548;2022-08-19T03:53:23;22.55;;;15.40;;
9138;SDS011;4604;48.616;9.548;2022-08-19T03:55:51;21.73;;;15.60;;
9138;SDS011;4604;48.616;9.548;2022-08-19T03:58:19;19.45;;;14.13;;
9138;SDS011;4604;48.616;9.548;2022-08-19T04:00:46;19.00;;;13.20;;
9138;SDS011;4604;48.616;9.548;2022-08-19T04:03:12;15.55;;;13.07;;
9138;SDS011;4604;48.616;9.548;2022-08-19T04:05:39;21.20;;;15.18;;
9138;SDS011;4604;48.616;9.548;2022-08-19T04:08:06;19.90;;;13.35;;
9138;SDS011;4604;48.616;9.548;2022-08-19T04:10:34;21.73;;;15.20;;
9138;SDS011;4604;48.616;9.548;2022-08-19T04:13:01;15.55;;;12.43;;
9138;SDS011;4604;48.616;9.548;2022-08-19T04:15:30;19.00;;;14.15;;
9138;SDS011;4604;48.616;9.548;2022-08-19T04:18:00;16.48;;;13.00;;
9138;SDS011;4604;48.616;9.548;2022-08-19T04:20:27;17.73;;;13.30;;
9138;SDS011;4604;48.616;9.548;2022-08-19T04:22:55;19.42;;;15.00;;
9138;SDS011;4604;48.616;9.548;2022-08-19T04:25:23;21.13;;;14.95;;
9138;SDS011;4604;48.616;9.548;2022-08-19T04:27:49;18.00;;;13.25;;
9138;SDS011;4604;48.616;9.548;2022-08-19T04:30:16;22.63;;;15.85;;
9138;SDS011;4604;48.616;9.548;2022-08-19T04:32:45;20.20;;;14.88;;
9138;SDS011;4604;48.616;9.548;2022-08-19T04:35:12;22.08;;;14.77;;
9138;SDS011;4604;48.616;9.548;2022-08-19T04:37:39;22.92;;;15.10;;
9138;SDS011;4604;48.616;9.548;2022-08-19T04:40:06;20.30;;;14.45;;
9138;SDS011;4604;48.616;9.548;2022-08-19T04:42:51;20.73;;;14.90;;
9138;SDS011;4604;48.616;9.548;2022-08-19T04:45:18;21.90;;;14.32;;
9138;SDS011;4604;48.616;9.548;2022-08-19T04:47:46;19.15;;;13.80;;
9138;SDS011;4604;48.616;9.548;2022-08-19T04:50:13;17.95;;;13.27;;
9138;SDS011;4604;48.616;9.548;2022-08-19T04:52:40;21.35;;;15.68;;
9138;SDS011;4604;48.616;9.548;2022-08-19T04:55:08;18.13;;;12.60;;
9138;SDS011;4604;48.616;9.548;2022-08-19T04:57:35;18.88;;;13.57;;
9138;SDS011;4604;48.616;9.548;2022-08-19T05:00:05;22.08;;;15.20;;
9138;SDS011;4604;48.616;9.548;2022-08-19T05:02:33;21.95;;;15.27;;
9138;SDS011;4604;48.616;9.548;2022-08-19T05:05:02;19.40;;;14.65;;
9138;SDS011;4604;48.616;9.548;2022-08-19T05:07:31;22.27;;;16.30;;
9138;SDS011;4604;48.616;9.548;2022-08-19T05:09:58;19.95;;;12.30;;
9138;SDS011;4604;48.616;9.548;2022-08-19T05:12:24;20.20;;;15.15;;
9138;SDS011;4604;48.616;9.548;2022-08-19T05:14:52;18.88;;;13.45;;
9138;SDS011;4604;48.616;9.548;2022-08-19T05:17:19;21.27;;;16.13;;
9138;SDS011;4604;48.616;9.548;2022-08-19T05:19:46;22.85;;;16.58;;
9138;SDS011;4604;48.616;9.548;2022-08-19T05:22:31;19.13;;;14.15;;
9138;SDS011;4604;48.616;9.548;2022-08-19T05:25:01;26.85;;;16.70;;
9138;SDS011;4604;48.616;9.548;2022-08-19T05:27:30;22.17;;;16.55;;
9138;SDS011;4604;48.616;9.548;2022-08-19T05:29:57;21.70;;;15.00;;
9138;SDS011;4604;48.616;9.548;2022-08-19T05:32:24;23.70;;;16.90;;
9138;SDS011;4604;48.616;9.548;2022-08-19T05:34:51;26.15;;;16.92;;
9138;SDS011;4604;48.616;9.548;2022-08-19T05:37:18;20.60;;;14.20;;
9138;SDS011;4604;48.616;9.548;2022-08-19T05:39:46;27.92;;;16.98;;
9138;SDS011;4604;48.616;9.548;2022-08-19T05:42:14;22.27;;;15.23;;
9138;SDS011;4604;48.616;9.548;2022-08-19T05:44:42;24.92;;;16.33;;
9138;SDS011;4604;48.616;9.548;2022-08-19T05:47:10;30.45;;;17.55;;
9138;SDS011;4604;48.616;9.548;2022-08-19T05:49:39;22.67;;;15.95;;
9138;SDS011;4604;48.616;9.548;2022-08-19T05:52:07;22.75;;;17.33;;
9138;SDS011;4604;48.616;9.548;2022-08-19T05:54:37;26.42;;;18.42;;
9138;SDS011;4604;48.616;9.548;2022-08-19T05:57:06;26.65;;;18.55;;
9138;SDS011;4604;48.616;9.548;2022-08-19T05:59:33;26.70;;;18.77;;
9138;SDS011;4604;48.616;9.548;2022-08-19T06:02:02;26.30;;;18.63;;
9138;SDS011;4604;48.616;9.548;2022-08-19T06:04:30;28.17;;;18.20;;
9138;SDS011;4604;48.616;9.548;2022-08-19T06:06:56;29.70;;;18.98;;
9138;SDS011;4604;48.616;9.548;2022-08-19T06:09:23;29.50;;;19.83;;
9138;SDS011;4604;48.616;9.548;2022-08-19T06:11:50;27.35;;;19.15;;
9138;SDS011;4604;48.616;9.548;2022-08-19T06:14:21;26.73;;;18.73;;
9138;SDS011;4604;48.616;9.548;2022-08-19T06:16:50;28.27;;;19.63;;
9138;SDS011;4604;48.616;9.548;2022-08-19T06:19:18;28.08;;;18.75;;
9138;SDS011;4604;48.616;9.548;2022-08-19T06:21:48;30.70;;;19.52;;
9138;SDS011;4604;48.616;9.548;2022-08-19T06:24:16;30.73;;;19.85;;
9138;SDS011;4604;48.616;9.548;2022-08-19T06:26:45;28.58;;;18.63;;
9138;SDS011;4604;48.616;9.548;2022-08-19T06:29:15;27.13;;;19.83;;
9138;SDS011;4604;48.616;9.548;2022-08-19T06:31:47;28.05;;;19.27;;
9138;SDS011;4604;48.616;9.548;2022-08-19T06:34:16;27.77;;;19.33;;
9138;SDS011;4604;48.616;9.548;2022-08-19T06:36:44;33.95;;;20.50;;
9138;SDS011;4604;48.616;9.548;2022-08-19T06:39:13;28.05;;;19.98;;
9138;SDS011;4604;48.616;9.548;2022-08-19T06:41:42;29.58;;;20.23;;
9138;SDS011;4604;48.616;9.548;2022-08-19T06:44:11;30.80;;;19.58;;
9138;SDS011;4604;48.616;9.548;2022-08-19T06:46:38;35.85;;;20.40;;
9138;SDS011;4604;48.616;9.548;2022-08-19T06:49:07;32.42;;;21.10;;
9138;SDS011;4604;48.616;9.548;2022-08-19T06:51:35;26.95;;;16.77;;
9138;SDS011;4604;48.616;9.548;2022-08-19T06:54:01;27.73;;;18.15;;
9138;SDS011;4604;48.616;9.548;2022-08-19T06:56:29;25.17;;;18.42;;
9138;SDS011;4604;48.616;9.548;2022-08-19T06:58:58;28.65;;;19.83;;
9138;SDS011;4604;48.616;9.548;2022-08-19T07:01:26;31.98;;;20.77;;
9138;SDS011;4604;48.616;9.548;2022-08-19T07:03:53;32.03;;;20.50;;
9138;SDS011;4604;48.616;9.548;2022-08-19T07:06:21;30.02;;;20.98;;
9138;SDS011;4604;48.616;9.548;2022-08-19T07:08:48;31.38;;;21.08;;
9138;SDS011;4604;48.616;9.548;2022-08-19T07:11:16;30.25;;;20.25;;
9138;SDS011;4604;48.616;9.548;2022-08-19T07:13:44;29.88;;;20.63;;
9138;SDS011;4604;48.616;9.548;2022-08-19T07:16:15;31.98;;;20.92;;
9138;SDS011;4604;48.616;9.548;2022-08-19T07:18:44;30.42;;;20.40;;
9138;SDS011;4604;48.616;9.548;2022-08-19T07:21:12;33.78;;;20.30;;
9138;SDS011;4604;48.616;9.548;2022-08-19T07:23:44;32.60;;;21.58;;
9138;SDS011;4604;48.616;9.548;2022-08-19T07:26:11;28.30;;;18.88;;
9138;SDS011;4604;48.616;9.548;2022-08-19T07:28:40;28.60;;;18.65;;
9138;SDS011;4604;48.616;9.548;2022-08-19T07:31:09;29.10;;;19.98;;
9138;SDS011;4604;48.616;9.548;2022-08-19T07:33:37;27.02;;;18.65;;
9138;SDS011;4604;48.616;9.548;2022-08-19T07:36:04;25.10;;;16.88;;
9138;SDS011;4604;48.616;9.548;2022-08-19T07:38:33;28.48;;;18.73;;
9138;SDS011;4604;48.616;9.548;2022-08-19T07:41:01;24.27;;;16.55;;
9138;SDS011;4604;48.616;9.548;2022-08-19T07:43:28;33.88;;;21.52;;
9138;SDS011;4604;48.616;9.548;2022-08-19T07:45:55;27.42;;;16.98;;
9138;SDS011;4604;48.616;9.548;2022-08-19T07:48:22;28.98;;;20.10;;
9138;SDS011;4604;48.616;9.548;2022-08-19T07:50:50;31.38;;;20.60;;
9138;SDS011;4604;48.616;9.548;2022-08-19T07:53:18;31.50;;;20.15;;
9138;SDS011;4604;48.616;9.548;2022-08-19T07:55:45;27.27;;;19.83;;
9138;SDS011;4604;48.616;9.548;2022-08-19T07:58:14;28.88;;;20.98;;
9138;SDS011;4604;48.616;9.548;2022-08-19T08:00:43;32.45;;;21.98;;
9138;SDS011;4604;48.616;9.548;2022-08-19T08:03:11;24.30;;;17.02;;
9138;SDS011;4604;48.616;9.548;2022-08-19T08:05:39;34.55;;;21.83;;
9138;SDS011;4604;48.616;9.548;2022-08-19T08:08:23;28.83;;;19.10;;
9138;SDS011;4604;48.616;9.548;2022-08-19T08:11:08;28.40;;;18.65;;
9138;SDS011;4604;48.616;9.548;2022-08-19T08:13:37;38.17;;;22.92;;
9138;SDS011;4604;48.616;9.548;2022-08-19T08:16:06;28.73;;;19.48;;
9138;SDS011;4604;48.616;9.548;2022-08-19T08:18:33;34.53;;;22.30;;
9138;SDS011;4604;48.616;9.548;2022-08-19T08:21:06;22.67;;;16.73;;
9138;SDS011;4604;48.616;9.548;2022-08-19T08:23:33;30.85;;;21.80;;
9138;SDS011;4604;48.616;9.548;2022-08-19T08:26:00;27.38;;;18.60;;
9138;SDS011;4604;48.616;9.548;2022-08-19T08:28:28;30.88;;;19.48;;
9138;SDS011;4604;48.616;9.548;2022-08-19T08:30:57;28.15;;;18.50;;
9138;SDS011;4604;48.616;9.548;2022-08-19T08:33:25;32.53;;;21.83;;
9138;SDS011;4604;48.616;9.548;2022-08-19T08:35:53;32.10;;;21.80;;
9138;SDS011;4604;48.616;9.548;2022-08-19T08:38:19;32.58;;;21.38;;
9138;SDS011;4604;48.616;9.548;2022-08-19T08:40:47;31.85;;;22.20;;
9138;SDS011;4604;48.616;9.548;2022-08-19T08:43:22;31.40;;;22.02;;
9138;SDS011;4604;48.616;9.548;2022-08-19T08:45:55;26.25;;;17.85;;
9138;SDS011;4604;48.616;9.548;2022-08-19T08:48:41;31.45;;;20.92;;
9138;SDS011;4604;48.616;9.548;2022-08-19T08:51:13;31.80;;;21.05;;
9138;SDS011;4604;48.616;9.548;2022-08-19T08:53:46;30.50;;;19.65;;
9138;SDS011;4604;48.616;9.548;2022-08-19T08:56:15;28.20;;;20.77;;
9138;SDS011;4604;48.616;9.548;2022-08-19T08:58:45;35.75;;;21.27;;
9138;SDS011;4604;48.616;9.548;2022-08-19T09:01:19;34.72;;;22.67;;
9138;SDS011;4604;48.616;9.548;2022-08-19T09:03:45;31.63;;;21.75;;
9138;SDS011;4604;48.616;9.548;2022-08-19T09:06:14;27.02;;;18.88;;
9138;SDS011;4604;48.616;9.548;2022-08-19T09:08:55;30.70;;;19.75;;
9138;SDS011;4604;48.616;9.548;2022-08-19T09:11:31;34.28;;;22.17;;
9138;SDS011;4604;48.616;9.548;2022-08-19T09:14:16;29.60;;;21.00;;
9138;SDS011;4604;48.616;9.548;2022-08-19T09:16:55;33.15;;;21.83;;
9138;SDS011;4604;48.616;9.548;2022-08-19T09:19:24;34.20;;;22.23;;
9138;SDS011;4604;48.616;9.548;2022-08-19T09:21:51;33.97;;;21.98;;
9138;SDS011;4604;48.616;9.548;2022-08-19T09:24:18;34.63;;;21.95;;
9138;SDS011;4604;48.616;9.548;2022-08-19T09:26:45;30.48;;;21.73;;
9138;SDS011;4604;48.616;9.548;2022-08-19T09:29:11;35.47;;;23.52;;
9138;SDS011;4604;48.616;9.548;2022-08-19T09:31:39;34.58;;;22.17;;
9138;SDS011;4604;48.616;9.548;2022-08-19T09:34:07;33.30;;;22.08;;
9138;SDS011;4604;48.616;9.548;2022-08-19T09:36:34;35.72;;;22.08;;
9138;SDS011;4604;48.616;9.548;2022-08-19T09:39:04;33.67;;;22.83;;
9138;SDS011;4604;48.616;9.548;2022-08-19T09:41:32;33.38;;;20.83;;
9138;SDS011;4604;48.616;9.548;2022-08-19T09:43:59;33.15;;;21.60;;
9138;SDS011;4604;48.616;9.548;2022-08-19T09:46:26;37.40;;;22.92;;
9138;SDS011;4604;48.616;9.548;2022-08-19T09:48:57;34.17;;;23.02;;
9138;SDS011;4604;48.616;9.548;2022-08-19T09:51:27;38.75;;;23.35;;
9138;SDS011;4604;48.616;9.548;2022-08-19T09:53:55;33.67;;;21.98;;
9138;SDS011;4604;48.616;9.548;2022-08-19T09:56:26;31.52;;;20.10;;
9138;SDS011;4604;48.616;9.548;2022-08-19T09:58:53;37.25;;;23.48;;
9138;SDS011;4604;48.616;9.548;2022-08-19T10:01:20;32.90;;;22.27;;
9138;SDS011;4604;48.616;9.548;2022-08-19T10:03:48;32.03;;;22.38;;
9138;SDS011;4604;48.616;9.548;2022-08-19T10:06:17;35.03;;;22.63;;
9138;SDS011;4604;48.616;9.548;2022-08-19T10:08:46;33.72;;;22.33;;
9138;SDS011;4604;48.616;9.548;2022-08-19T10:11:18;32.15;;;22.60;;
9138;SDS011;4604;48.616;9.548;2022-08-19T10:13:46;36.92;;;23.08;;
9138;SDS011;4604;48.616;9.548;2022-08-19T10:16:14;29.63;;;18.40;;
9138;SDS011;4604;48.616;9.548;2022-08-19T10:18:45;32.95;;;22.05;;
9138;SDS011;4604;48.616;9.548;2022-08-19T10:21:13;34.03;;;22.23;;
9138;SDS011;4604;48.616;9.548;2022-08-19T10:23:42;30.38;;;21.15;;
9138;SDS011;4604;48.616;9.548;2022-08-19T10:26:13;33.25;;;22.17;;
9138;SDS011;4604;48.616;9.548;2022-08-19T10:28:42;34.65;;;21.50;;
9138;SDS011;4604;48.616;9.548;2022-08-19T10:31:10;30.63;;;21.63;;
9138;SDS011;4604;48.616;9.548;2022-08-19T10:33:42;32.20;;;20.85;;
9138;SDS011;4604;48.616;9.548;2022-08-19T10:36:11;35.20;;;21.48;;
9138;SDS011;4604;48.616;9.548;2022-08-19T10:38:40;29.80;;;20.08;;
9138;SDS011;4604;48.616;9.548;2022-08-19T10:41:09;31.13;;;22.17;;
9138;SDS011;4604;48.616;9.548;2022-08-19T10:43:39;31.50;;;21.55;;
9138;SDS011;4604;48.616;9.548;2022-08-19T10:46:06;29.85;;;20.90;;
9138;SDS011;4604;48.616;9.548;2022-08-19T10:48:33;30.10;;;19.55;;
9138;SDS011;4604;48.616;9.548;2022-08-19T10:51:00;24.85;;;18.42;;
9138;SDS011;4604;48.616;9.548;2022-08-19T10:53:45;27.60;;;17.55;;
9138;SDS011;4604;48.616;9.548;2022-08-19T10:56:12;23.23;;;16.45;;
9138;SDS011;4604;48.616;9.548;2022-08-19T10:58:58;32.33;;;20.83;;
9138;SDS011;4604;48.616;9.548;2022-08-19T11:01:26;25.83;;;17.27;;
9138;SDS011;4604;48.616;9.548;2022-08-19T11:03:54;23.05;;;16.17;;
9138;SDS011;4604;48.616;9.548;2022-08-19T11:06:22;24.45;;;16.33;;
9138;SDS011;4604;48.616;9.548;2022-08-19T11:08:51;25.25;;;17.73;;
9138;SDS011;4604;48.616;9.548;2022-08-19T11:11:18;25.60;;;17.80;;
9138;SDS011;4604;48.616;9.548;2022-08-19T11:13:45;27.20;;;18.85;;
9138;SDS011;4604;48.616;9.548;2022-08-19T11:16:14;21.25;;;15.60;;
9138;SDS011;4604;48.616;9.548;2022-08-19T11:18:43;25.83;;;17.48;;
9138;SDS011;4604;48.616;9.548;2022-08-19T11:21:12;21.67;;;16.05;;
9138;SDS011;4604;48.616;9.548;2022-08-19T11:23:42;22.50;;;16.55;;
9138;SDS011;4604;48.616;9.548;2022-08-19T11:26:10;21.83;;;16.23;;
9138;SDS011;4604;48.616;9.548;2022-08-19T11:28:37;28.42;;;18.65;;
9138;SDS011;4604;48.616;9.548;2022-08-19T11:31:03;23.92;;;16.88;;
9138;SDS011;4604;48.616;9.548;2022-08-19T11:33:36;31.23;;;20.10;;
9138;SDS011;4604;48.616;9.548;2022-08-19T11:36:03;25.05;;;16.25;;
9138;SDS011;4604;48.616;9.548;2022-08-19T11:38:30;26.95;;;18.15;;
9138;SDS011;4604;48.616;9.548;2022-08-19T11:40:58;22.77;;;17.13;;
9138;SDS011;4604;48.616;9.548;2022-08-19T11:43:27;24.65;;;16.48;;
9138;SDS011;4604;48.616;9.548;2022-08-19T11:45:54;26.55;;;18.30;;
9138;SDS011;4604;48.616;9.548;2022-08-19T11:48:21;30.13;;;19.80;;
9138;SDS011;4604;48.616;9.548;2022-08-19T11:50:50;23.70;;;16.58;;
9138;SDS011;4604;48.616;9.548;2022-08-19T11:53:18;24.50;;;17.33;;
9138;SDS011;4604;48.616;9.548;2022-08-19T11:55:45;22.00;;;16.15;;
9138;SDS011;4604;48.616;9.548;2022-08-19T11:58:13;26.02;;;17.83;;
9138;SDS011;4604;48.616;9.548;2022-08-19T12:00:41;21.33;;;16.38;;
9138;SDS011;4604;48.616;9.548;2022-08-19T12:03:10;26.75;;;18.50;;
9138;SDS011;4604;48.616;9.548;2022-08-19T12:05:37;22.85;;;15.80;;
9138;SDS011;4604;48.616;9.548;2022-08-19T12:08:06;22.95;;;15.90;;
9138;SDS011;4604;48.616;9.548;2022-08-19T12:10:33;22.58;;;16.48;;
9138;SDS011;4604;48.616;9.548;2022-08-19T12:13:01;24.52;;;17.50;;
9138;SDS011;4604;48.616;9.548;2022-08-19T12:15:28;27.98;;;18.05;;
9138;SDS011;4604;48.616;9.548;2022-08-19T12:17:54;16.38;;;12.90;;
9138;SDS011;4604;48.616;9.548;2022-08-19T12:20:21;26.25;;;18.85;;
9138;SDS011;4604;48.616;9.548;2022-08-19T12:22:49;21.52;;;15.73;;
9138;SDS011;4604;48.616;9.548;2022-08-19T12:25:17;20.40;;;14.68;;
9138;SDS011;4604;48.616;9.548;2022-08-19T12:27:45;27.65;;;18.42;;
9138;SDS011;4604;48.616;9.548;2022-08-19T12:30:14;21.80;;;15.63;;
9138;SDS011;4604;48.616;9.548;2022-08-19T12:32:41;23.58;;;16.73;;
9138;SDS011;4604;48.616;9.548;2022-08-19T12:35:08;26.42;;;17.38;;
9138;SDS011;4604;48.616;9.548;2022-08-19T12:37:36;23.42;;;17.42;;
9138;SDS011;4604;48.616;9.548;2022-08-19T12:40:04;28.42;;;17.10;;
9138;SDS011;4604;48.616;9.548;2022-08-19T12:42:34;19.35;;;14.57;;
9138;SDS011;4604;48.616;9.548;2022-08-19T12:45:00;21.65;;;16.08;;
9138;SDS011;4604;48.616;9.548;2022-08-19T12:47:27;15.88;;;13.48;;
9138;SDS011;4604;48.616;9.548;2022-08-19T12:49:55;25.25;;;16.63;;
9138;SDS011;4604;48.616;9.548;2022-08-19T12:52:23;22.52;;;15.07;;
9138;SDS011;4604;48.616;9.548;2022-08-19T12:54:53;18.95;;;13.70;;
9138;SDS011;4604;48.616;9.548;2022-08-19T12:57:21;20.88;;;14.73;;
9138;SDS011;4604;48.616;9.548;2022-08-19T12:59:52;23.63;;;16.63;;
9138;SDS011;4604;48.616;9.548;2022-08-19T13:02:19;26.42;;;17.75;;
9138;SDS011;4604;48.616;9.548;2022-08-19T13:04:47;26.38;;;19.77;;
9138;SDS011;4604;48.616;9.548;2022-08-19T13:07:14;22.15;;;16.30;;
9138;SDS011;4604;48.616;9.548;2022-08-19T13:09:41;22.38;;;14.75;;
9138;SDS011;4604;48.616;9.548;2022-08-19T13:12:08;30.77;;;19.83;;
9138;SDS011;4604;48.616;9.548;2022-08-19T13:14:38;23.98;;;16.88;;
9138;SDS011;4604;48.616;9.548;2022-08-19T13:17:06;25.92;;;17.73;;
9138;SDS011;4604;48.616;9.548;2022-08-19T13:19:35;24.88;;;17.25;;
9138;SDS011;4604;48.616;9.548;2022-08-19T13:22:03;24.48;;;16.45;;
9138;SDS011;4604;48.616;9.548;2022-08-19T13:24:30;23.23;;;16.75;;
9138;SDS011;4604;48.616;9.548;2022-08-19T13:26:58;22.80;;;16.05;;
9138;SDS011;4604;48.616;9.548;2022-08-19T13:29:25;21.05;;;15.95;;
9138;SDS011;4604;48.616;9.548;2022-08-19T13:32:11;21.48;;;16.02;;
9138;SDS011;4604;48.616;9.548;2022-08-19T13:34:55;18.50;;;14.38;;
9138;SDS011;4604;48.616;9.548;2022-08-19T13:37:22;23.17;;;16.45;;
9138;SDS011;4604;48.616;9.548;2022-08-19T13:40:03;23.75;;;17.60;;
9138;SDS011;4604;48.616;9.548;2022-08-19T13:42:31;20.10;;;14.20;;
9138;SDS011;4604;48.616;9.548;2022-08-19T13:44:58;25.10;;;17.20;;
9138;SDS011;4604;48.616;9.548;2022-08-19T13:47:26;23.23;;;15.98;;
9138;SDS011;4604;48.616;9.548;2022-08-19T13:49:53;26.73;;;17.67;;
9138;SDS011;4604;48.616;9.548;2022-08-19T13:52:19;23.00;;;16.17;;
9138;SDS011;4604;48.616;9.548;2022-08-19T13:54:46;20.55;;;14.90;;
9138;SDS011;4604;48.616;9.548;2022-08-19T13:57:13;20.50;;;15.20;;
9138;SDS011;4604;48.616;9.548;2022-08-19T13:59:40;21.10;;;14.93;;
9138;SDS011;4604;48.616;9.548;2022-08-19T14:02:07;17.73;;;13.45;;
9138;SDS011;4604;48.616;9.548;2022-08-19T14:04:35;17.80;;;13.68;;
9138;SDS011;4604;48.616;9.548;2022-08-19T14:07:02;17.67;;;13.88;;
9138;SDS011;4604;48.616;9.548;2022-08-19T14:09:29;19.92;;;14.98;;
9138;SDS011;4604;48.616;9.548;2022-08-19T14:11:56;20.45;;;14.73;;
9138;SDS011;4604;48.616;9.548;2022-08-19T14:14:23;20.60;;;16.92;;
9138;SDS011;4604;48.616;9.548;2022-08-19T14:16:49;18.88;;;13.23;;
9138;SDS011;4604;48.616;9.548;2022-08-19T14:19:17;23.00;;;15.35;;
9138;SDS011;4604;48.616;9.548;2022-08-19T14:21:45;21.30;;;16.10;;
9138;SDS011;4604;48.616;9.548;2022-08-19T14:24:12;20.02;;;14.45;;
9138;SDS011;4604;48.616;9.548;2022-08-19T14:26:39;19.30;;;14.48;;
9138;SDS011;4604;48.616;9.548;2022-08-19T14:29:06;17.95;;;13.55;;
9138;SDS011;4604;48.616;9.548;2022-08-19T14:31:33;19.73;;;13.90;;
9138;SDS011;4604;48.616;9.548;2022-08-19T14:34:00;15.80;;;12.82;;
9138;SDS011;4604;48.616;9.548;2022-08-19T14:36:26;16.48;;;13.10;;
9138;SDS011;4604;48.616;9.548;2022-08-19T14:38:54;15.88;;;12.93;;
9138;SDS011;4604;48.616;9.548;2022-08-19T14:41:22;17.33;;;13.85;;
9138;SDS011;4604;48.616;9.548;2022-08-19T14:43:50;18.73;;;13.90;;
9138;SDS011;4604;48.616;9.548;2022-08-19T14:46:18;17.85;;;14.48;;
9138;SDS011;4604;48.616;9.548;2022-08-19T14:48:47;18.50;;;15.55;;
9138;SDS011;4604;48.616;9.548;2022-08-19T14:51:14;15.93;;;12.90;;
9138;SDS011;4604;48.616;9.548;2022-08-19T14:53:41;13.38;;;10.63;;
9138;SDS011;4604;48.616;9.548;2022-08-19T14:56:10;17.23;;;13.40;;